sensor_id;sensor_type;location;lat;lon;timestamp;temperature;humidity
20081;DHT22;10200;49.232;9.222;2022-08-01T00:00:23;23.60;57.80
20081;DHT22;10200;49.232;9.222;2022-08-01T00:02:49;23.50;57.80
20081;DHT22;10200;49.232;9.222;2022-08-01T00:05:15;23.50;57.80
20081;DHT22;10200;49.232;9.222;2022-08-01T00:07:40;23.40;58.20
20081;DHT22;10200;49.232;9.222;2022-08-01T00:10:10;23.30;58.50
20081;DHT22;10200;49.232;9.222;2022-08-01T00:12:36;23.30;58.80
20081;DHT22;10200;49.232;9.222;2022-08-01T00:15:03;23.30;58.80
20081;DHT22;10200;49.232;9.222;2022-08-01T00:17:29;23.20;58.90
20081;DHT22;10200;49.232;9.222;2022-08-01T00:19:54;23.30;59.50
20081;DHT22;10200;49.232;9.222;2022-08-01T00:22:20;23.20;59.20
20081;DHT22;10200;49.232;9.222;2022-08-01T00:24:46;23.30;59.60
20081;DHT22;10200;49.232;9.222;2022-08-01T00:27:11;23.20;59.40
20081;DHT22;10200;49.232;9.222;2022-08-01T00:29:37;23.20;59.70
20081;DHT22;10200;49.232;9.222;2022-08-01T00:32:02;23.20;60.00
20081;DHT22;10200;49.232;9.222;2022-08-01T00:34:28;23.20;59.90
20081;DHT22;10200;49.232;9.222;2022-08-01T00:36:54;23.10;60.00
20081;DHT22;10200;49.232;9.222;2022-08-01T00:39:19;23.10;60.30
20081;DHT22;10200;49.232;9.222;2022-08-01T00:41:45;23.10;60.30
20081;DHT22;10200;49.232;9.222;2022-08-01T00:44:10;23.10;60.40
20081;DHT22;10200;49.232;9.222;2022-08-01T00:46:36;23.10;60.40
20081;DHT22;10200;49.232;9.222;2022-08-01T00:49:02;23.20;60.50
20081;DHT22;10200;49.232;9.222;2022-08-01T00:51:28;23.10;60.40
20081;DHT22;10200;49.232;9.222;2022-08-01T00:53:54;23.10;60.40
20081;DHT22;10200;49.232;9.222;2022-08-01T00:56:24;23.10;60.90
20081;DHT22;10200;49.232;9.222;2022-08-01T00:58:50;23.10;61.50
20081;DHT22;10200;49.232;9.222;2022-08-01T01:01:16;23.10;61.70
20081;DHT22;10200;49.232;9.222;2022-08-01T01:03:42;23.10;61.60
20081;DHT22;10200;49.232;9.222;2022-08-01T01:08:43;23.10;61.60
20081;DHT22;10200;49.232;9.222;2022-08-01T01:11:31;23.10;61.80
20081;DHT22;10200;49.232;9.222;2022-08-01T01:14:04;23.10;61.70
20081;DHT22;10200;49.232;9.222;2022-08-01T01:16:36;23.10;61.80
20081;DHT22;10200;49.232;9.222;2022-08-01T01:19:05;23.00;61.50
20081;DHT22;10200;49.232;9.222;2022-08-01T01:24:49;23.10;61.40
20081;DHT22;10200;49.232;9.222;2022-08-01T01:27:39;23.10;61.00
20081;DHT22;10200;49.232;9.222;2022-08-01T01:30:08;23.10;60.90
20081;DHT22;10200;49.232;9.222;2022-08-01T01:32:44;23.10;60.80
20081;DHT22;10200;49.232;9.222;2022-08-01T01:35:19;23.10;61.10
20081;DHT22;10200;49.232;9.222;2022-08-01T01:37:47;23.10;61.10
20081;DHT22;10200;49.232;9.222;2022-08-01T01:40:16;23.10;61.10
20081;DHT22;10200;49.232;9.222;2022-08-01T01:42:43;23.00;60.90
20081;DHT22;10200;49.232;9.222;2022-08-01T01:45:09;23.00;61.20
20081;DHT22;10200;49.232;9.222;2022-08-01T01:47:36;22.80;61.20
20081;DHT22;10200;49.232;9.222;2022-08-01T01:50:03;22.80;61.80
20081;DHT22;10200;49.232;9.222;2022-08-01T01:52:30;22.70;62.00
20081;DHT22;10200;49.232;9.222;2022-08-01T01:54:58;22.60;62.20
20081;DHT22;10200;49.232;9.222;2022-08-01T01:57:25;22.50;62.40
20081;DHT22;10200;49.232;9.222;2022-08-01T01:59:53;22.40;63.10
20081;DHT22;10200;49.232;9.222;2022-08-01T02:02:20;22.30;63.20
20081;DHT22;10200;49.232;9.222;2022-08-01T02:04:48;22.20;63.50
20081;DHT22;10200;49.232;9.222;2022-08-01T02:07:21;22.20;64.00
20081;DHT22;10200;49.232;9.222;2022-08-01T02:09:48;22.20;64.20
20081;DHT22;10200;49.232;9.222;2022-08-01T02:12:16;22.10;64.50
20081;DHT22;10200;49.232;9.222;2022-08-01T02:14:44;22.10;64.80
20081;DHT22;10200;49.232;9.222;2022-08-01T02:17:12;22.00;65.00
20081;DHT22;10200;49.232;9.222;2022-08-01T02:19:40;21.90;65.20
20081;DHT22;10200;49.232;9.222;2022-08-01T02:22:32;21.90;65.40
20081;DHT22;10200;49.232;9.222;2022-08-01T02:25:48;21.80;65.80
20081;DHT22;10200;49.232;9.222;2022-08-01T02:28:29;21.80;66.40
20081;DHT22;10200;49.232;9.222;2022-08-01T02:30:59;21.90;66.40
20081;DHT22;10200;49.232;9.222;2022-08-01T02:33:32;21.90;66.50
20081;DHT22;10200;49.232;9.222;2022-08-01T02:36:00;21.90;66.20
20081;DHT22;10200;49.232;9.222;2022-08-01T02:38:29;21.90;66.30
20081;DHT22;10200;49.232;9.222;2022-08-01T02:40:59;21.80;66.70
20081;DHT22;10200;49.232;9.222;2022-08-01T02:43:28;21.70;66.90
20081;DHT22;10200;49.232;9.222;2022-08-01T02:45:59;21.60;67.40
20081;DHT22;10200;49.232;9.222;2022-08-01T02:48:26;21.60;68.20
20081;DHT22;10200;49.232;9.222;2022-08-01T02:50:55;21.60;68.00
20081;DHT22;10200;49.232;9.222;2022-08-01T02:53:24;21.70;68.50
20081;DHT22;10200;49.232;9.222;2022-08-01T02:55:52;21.70;68.20
20081;DHT22;10200;49.232;9.222;2022-08-01T02:58:20;21.70;68.70
20081;DHT22;10200;49.232;9.222;2022-08-01T03:00:49;21.70;69.00
20081;DHT22;10200;49.232;9.222;2022-08-01T03:03:15;21.70;69.10
20081;DHT22;10200;49.232;9.222;2022-08-01T03:05:43;21.70;69.30
20081;DHT22;10200;49.232;9.222;2022-08-01T03:08:10;21.80;69.50
20081;DHT22;10200;49.232;9.222;2022-08-01T03:10:39;21.80;69.60
20081;DHT22;10200;49.232;9.222;2022-08-01T03:13:07;21.90;69.50
20081;DHT22;10200;49.232;9.222;2022-08-01T03:15:37;22.00;69.30
20081;DHT22;10200;49.232;9.222;2022-08-01T03:18:05;22.00;69.20
20081;DHT22;10200;49.232;9.222;2022-08-01T03:20:33;22.10;69.20
20081;DHT22;10200;49.232;9.222;2022-08-01T03:23:05;22.10;69.30
20081;DHT22;10200;49.232;9.222;2022-08-01T03:25:32;22.10;69.00
20081;DHT22;10200;49.232;9.222;2022-08-01T03:28:03;22.10;70.30
20081;DHT22;10200;49.232;9.222;2022-08-01T03:30:31;22.00;69.20
20081;DHT22;10200;49.232;9.222;2022-08-01T03:32:57;22.10;69.60
20081;DHT22;10200;49.232;9.222;2022-08-01T03:35:27;22.00;69.80
20081;DHT22;10200;49.232;9.222;2022-08-01T03:37:55;22.00;69.90
20081;DHT22;10200;49.232;9.222;2022-08-01T03:40:28;22.00;70.20
20081;DHT22;10200;49.232;9.222;2022-08-01T03:43:02;22.00;70.10
20081;DHT22;10200;49.232;9.222;2022-08-01T03:45:35;22.00;70.40
20081;DHT22;10200;49.232;9.222;2022-08-01T03:48:12;21.90;69.50
20081;DHT22;10200;49.232;9.222;2022-08-01T03:50:41;21.80;70.00
20081;DHT22;10200;49.232;9.222;2022-08-01T03:53:08;21.80;70.20
20081;DHT22;10200;49.232;9.222;2022-08-01T03:55:37;21.70;70.50
20081;DHT22;10200;49.232;9.222;2022-08-01T03:58:05;21.70;70.70
20081;DHT22;10200;49.232;9.222;2022-08-01T04:00:31;21.60;71.20
20081;DHT22;10200;49.232;9.222;2022-08-01T04:02:57;21.60;72.40
20081;DHT22;10200;49.232;9.222;2022-08-01T04:05:23;21.60;72.10
20081;DHT22;10200;49.232;9.222;2022-08-01T04:07:50;21.50;72.40
20081;DHT22;10200;49.232;9.222;2022-08-01T04:10:22;21.50;72.50
20081;DHT22;10200;49.232;9.222;2022-08-01T04:12:48;21.50;73.00
20081;DHT22;10200;49.232;9.222;2022-08-01T04:15:13;21.50;73.40
20081;DHT22;10200;49.232;9.222;2022-08-01T04:17:40;21.40;73.50
20081;DHT22;10200;49.232;9.222;2022-08-01T04:20:06;21.30;74.00
20081;DHT22;10200;49.232;9.222;2022-08-01T04:22:31;21.30;74.30
20081;DHT22;10200;49.232;9.222;2022-08-01T04:24:58;21.20;74.40
20081;DHT22;10200;49.232;9.222;2022-08-01T04:27:29;21.20;75.00
20081;DHT22;10200;49.232;9.222;2022-08-01T04:29:58;21.20;75.40
20081;DHT22;10200;49.232;9.222;2022-08-01T04:32:28;21.20;75.60
20081;DHT22;10200;49.232;9.222;2022-08-01T04:34:57;21.10;75.40
20081;DHT22;10200;49.232;9.222;2022-08-01T04:37:25;21.10;75.60
20081;DHT22;10200;49.232;9.222;2022-08-01T04:39:52;21.10;75.70
20081;DHT22;10200;49.232;9.222;2022-08-01T04:42:19;21.10;76.20
20081;DHT22;10200;49.232;9.222;2022-08-01T04:44:45;21.10;76.40
20081;DHT22;10200;49.232;9.222;2022-08-01T04:47:11;21.20;77.20
20081;DHT22;10200;49.232;9.222;2022-08-01T04:49:39;21.20;77.30
20081;DHT22;10200;49.232;9.222;2022-08-01T04:52:06;21.30;77.60
20081;DHT22;10200;49.232;9.222;2022-08-01T04:54:34;21.40;77.60
20081;DHT22;10200;49.232;9.222;2022-08-01T04:57:03;21.50;77.30
20081;DHT22;10200;49.232;9.222;2022-08-01T04:59:29;21.70;77.60
20081;DHT22;10200;49.232;9.222;2022-08-01T05:02:05;21.80;76.20
20081;DHT22;10200;49.232;9.222;2022-08-01T05:04:31;21.90;76.40
20081;DHT22;10200;49.232;9.222;2022-08-01T05:06:57;22.60;76.20
20081;DHT22;10200;49.232;9.222;2022-08-01T05:09:22;23.60;73.50
20081;DHT22;10200;49.232;9.222;2022-08-01T05:11:48;24.70;69.60
20081;DHT22;10200;49.232;9.222;2022-08-01T05:14:14;25.80;65.00
20081;DHT22;10200;49.232;9.222;2022-08-01T05:16:39;26.90;61.60
20081;DHT22;10200;49.232;9.222;2022-08-01T05:19:05;28.20;57.00
20081;DHT22;10200;49.232;9.222;2022-08-01T05:21:30;28.70;56.00
20081;DHT22;10200;49.232;9.222;2022-08-01T05:23:56;28.50;53.10
20081;DHT22;10200;49.232;9.222;2022-08-01T05:26:23;27.80;53.60
20081;DHT22;10200;49.232;9.222;2022-08-01T05:28:48;26.90;55.10
20081;DHT22;10200;49.232;9.222;2022-08-01T05:31:14;26.10;57.00
20081;DHT22;10200;49.232;9.222;2022-08-01T05:33:40;25.60;59.50
20081;DHT22;10200;49.232;9.222;2022-08-01T05:36:05;25.10;59.90
20081;DHT22;10200;49.232;9.222;2022-08-01T05:38:31;24.60;62.10
20081;DHT22;10200;49.232;9.222;2022-08-01T05:40:56;24.50;63.80
20081;DHT22;10200;49.232;9.222;2022-08-01T05:43:22;24.30;64.60
20081;DHT22;10200;49.232;9.222;2022-08-01T05:45:48;24.20;65.60
20081;DHT22;10200;49.232;9.222;2022-08-01T05:48:14;24.30;67.70
20081;DHT22;10200;49.232;9.222;2022-08-01T05:50:39;24.70;67.00
20081;DHT22;10200;49.232;9.222;2022-08-01T05:53:05;25.20;64.70
20081;DHT22;10200;49.232;9.222;2022-08-01T05:55:31;25.30;62.80
20081;DHT22;10200;49.232;9.222;2022-08-01T05:57:56;25.30;62.10
20081;DHT22;10200;49.232;9.222;2022-08-01T06:00:22;25.40;62.80
20081;DHT22;10200;49.232;9.222;2022-08-01T06:02:48;26.00;63.20
20081;DHT22;10200;49.232;9.222;2022-08-01T06:05:13;26.60;61.90
20081;DHT22;10200;49.232;9.222;2022-08-01T06:07:39;27.30;59.60
20081;DHT22;10200;49.232;9.222;2022-08-01T06:10:06;27.90;58.60
20081;DHT22;10200;49.232;9.222;2022-08-01T06:12:33;28.40;56.60
20081;DHT22;10200;49.232;9.222;2022-08-01T06:14:59;28.80;55.70
20081;DHT22;10200;49.232;9.222;2022-08-01T06:17:25;29.50;54.50
20081;DHT22;10200;49.232;9.222;2022-08-01T06:19:50;29.90;53.10
20081;DHT22;10200;49.232;9.222;2022-08-01T06:22:16;30.50;52.30
20081;DHT22;10200;49.232;9.222;2022-08-01T06:24:42;30.90;51.00
20081;DHT22;10200;49.232;9.222;2022-08-01T06:27:07;30.90;51.10
20081;DHT22;10200;49.232;9.222;2022-08-01T06:29:33;31.40;49.50
20081;DHT22;10200;49.232;9.222;2022-08-01T06:32:00;31.70;49.20
20081;DHT22;10200;49.232;9.222;2022-08-01T06:34:25;32.20;48.90
20081;DHT22;10200;49.232;9.222;2022-08-01T06:36:51;32.50;47.10
20081;DHT22;10200;49.232;9.222;2022-08-01T06:39:17;32.70;46.60
20081;DHT22;10200;49.232;9.222;2022-08-01T06:41:42;32.90;46.00
20081;DHT22;10200;49.232;9.222;2022-08-01T06:44:11;32.90;46.30
20081;DHT22;10200;49.232;9.222;2022-08-01T06:46:37;32.90;45.70
20081;DHT22;10200;49.232;9.222;2022-08-01T06:49:03;33.00;45.40
20081;DHT22;10200;49.232;9.222;2022-08-01T06:51:29;33.10;45.20
20081;DHT22;10200;49.232;9.222;2022-08-01T06:53:54;32.50;44.20
20081;DHT22;10200;49.232;9.222;2022-08-01T06:56:20;31.50;45.50
20081;DHT22;10200;49.232;9.222;2022-08-01T06:58:46;30.90;48.50
20081;DHT22;10200;49.232;9.222;2022-08-01T07:01:11;31.10;49.10
20081;DHT22;10200;49.232;9.222;2022-08-01T07:03:37;31.40;49.00
20081;DHT22;10200;49.232;9.222;2022-08-01T07:06:03;31.80;48.50
20081;DHT22;10200;49.232;9.222;2022-08-01T07:08:29;31.90;47.80
20081;DHT22;10200;49.232;9.222;2022-08-01T07:10:55;32.20;47.60
20081;DHT22;10200;49.232;9.222;2022-08-01T07:13:21;32.50;46.90
20081;DHT22;10200;49.232;9.222;2022-08-01T07:15:51;32.60;46.90
20081;DHT22;10200;49.232;9.222;2022-08-01T07:18:17;32.50;46.10
20081;DHT22;10200;49.232;9.222;2022-08-01T07:20:42;32.50;46.80
20081;DHT22;10200;49.232;9.222;2022-08-01T07:23:11;32.70;45.90
20081;DHT22;10200;49.232;9.222;2022-08-01T07:25:37;32.90;46.30
20081;DHT22;10200;49.232;9.222;2022-08-01T07:28:03;33.00;45.30
20081;DHT22;10200;49.232;9.222;2022-08-01T07:30:28;32.80;45.80
20081;DHT22;10200;49.232;9.222;2022-08-01T07:32:54;32.90;46.00
20081;DHT22;10200;49.232;9.222;2022-08-01T07:35:20;33.20;45.80
20081;DHT22;10200;49.232;9.222;2022-08-01T07:37:45;33.30;45.50
20081;DHT22;10200;49.232;9.222;2022-08-01T07:40:11;32.70;44.40
20081;DHT22;10200;49.232;9.222;2022-08-01T07:42:37;32.50;46.40
20081;DHT22;10200;49.232;9.222;2022-08-01T07:45:03;32.50;46.60
20081;DHT22;10200;49.232;9.222;2022-08-01T07:47:29;32.80;46.00
20081;DHT22;10200;49.232;9.222;2022-08-01T07:50:03;32.70;45.30
20081;DHT22;10200;49.232;9.222;2022-08-01T07:52:28;32.50;45.80
20081;DHT22;10200;49.232;9.222;2022-08-01T07:54:55;32.40;45.80
20081;DHT22;10200;49.232;9.222;2022-08-01T07:57:22;32.00;45.20
20081;DHT22;10200;49.232;9.222;2022-08-01T07:59:48;31.50;47.10
20081;DHT22;10200;49.232;9.222;2022-08-01T08:02:13;31.90;48.10
20081;DHT22;10200;49.232;9.222;2022-08-01T08:04:39;32.10;46.20
20081;DHT22;10200;49.232;9.222;2022-08-01T08:07:04;32.20;46.90
20081;DHT22;10200;49.232;9.222;2022-08-01T08:09:30;32.20;46.50
20081;DHT22;10200;49.232;9.222;2022-08-01T08:11:56;32.20;46.10
20081;DHT22;10200;49.232;9.222;2022-08-01T08:14:22;32.00;46.00
20081;DHT22;10200;49.232;9.222;2022-08-01T08:16:49;31.70;47.10
20081;DHT22;10200;49.232;9.222;2022-08-01T08:19:15;31.40;46.80
20081;DHT22;10200;49.232;9.222;2022-08-01T08:21:41;31.40;47.10
20081;DHT22;10200;49.232;9.222;2022-08-01T08:24:08;31.30;46.80
20081;DHT22;10200;49.232;9.222;2022-08-01T08:26:57;31.70;48.20
20081;DHT22;10200;49.232;9.222;2022-08-01T08:29:24;32.40;47.20
20081;DHT22;10200;49.232;9.222;2022-08-01T08:31:52;32.80;46.30
20081;DHT22;10200;49.232;9.222;2022-08-01T08:34:18;33.30;45.10
20081;DHT22;10200;49.232;9.222;2022-08-01T08:36:44;33.70;44.10
20081;DHT22;10200;49.232;9.222;2022-08-01T08:39:09;33.50;44.50
20081;DHT22;10200;49.232;9.222;2022-08-01T08:41:35;33.40;43.40
20081;DHT22;10200;49.232;9.222;2022-08-01T08:44:05;33.20;44.90
20081;DHT22;10200;49.232;9.222;2022-08-01T08:46:32;33.70;43.80
20081;DHT22;10200;49.232;9.222;2022-08-01T08:48:59;33.70;43.80
20081;DHT22;10200;49.232;9.222;2022-08-01T08:51:26;34.00;42.10
20081;DHT22;10200;49.232;9.222;2022-08-01T08:53:56;33.60;43.90
20081;DHT22;10200;49.232;9.222;2022-08-01T08:56:24;33.80;43.20
20081;DHT22;10200;49.232;9.222;2022-08-01T08:58:51;33.80;42.00
20081;DHT22;10200;49.232;9.222;2022-08-01T09:01:17;33.40;43.70
20081;DHT22;10200;49.232;9.222;2022-08-01T09:03:44;33.90;43.60
20081;DHT22;10200;49.232;9.222;2022-08-01T09:06:11;34.20;42.60
20081;DHT22;10200;49.232;9.222;2022-08-01T09:08:36;34.30;41.90
20081;DHT22;10200;49.232;9.222;2022-08-01T09:11:03;34.10;43.00
20081;DHT22;10200;49.232;9.222;2022-08-01T09:13:29;33.30;41.70
20081;DHT22;10200;49.232;9.222;2022-08-01T09:15:55;33.20;42.90
20081;DHT22;10200;49.232;9.222;2022-08-01T09:21:09;32.70;44.90
20081;DHT22;10200;49.232;9.222;2022-08-01T09:23:37;33.50;44.80
20081;DHT22;10200;49.232;9.222;2022-08-01T09:26:06;34.00;42.60
20081;DHT22;10200;49.232;9.222;2022-08-01T09:28:32;34.20;42.50
20081;DHT22;10200;49.232;9.222;2022-08-01T09:30:58;34.00;41.30
20081;DHT22;10200;49.232;9.222;2022-08-01T09:33:24;34.10;42.20
20081;DHT22;10200;49.232;9.222;2022-08-01T09:35:57;33.50;42.40
20081;DHT22;10200;49.232;9.222;2022-08-01T09:38:24;33.30;44.30
20081;DHT22;10200;49.232;9.222;2022-08-01T09:43:19;34.20;42.40
20081;DHT22;10200;49.232;9.222;2022-08-01T09:45:45;34.70;42.70
20081;DHT22;10200;49.232;9.222;2022-08-01T09:48:11;35.20;41.40
20081;DHT22;10200;49.232;9.222;2022-08-01T09:50:51;35.80;41.00
20081;DHT22;10200;49.232;9.222;2022-08-01T09:53:17;35.80;38.90
20081;DHT22;10200;49.232;9.222;2022-08-01T09:55:42;35.70;39.00
20081;DHT22;10200;49.232;9.222;2022-08-01T09:58:08;35.70;39.50
20081;DHT22;10200;49.232;9.222;2022-08-01T10:00:36;35.30;38.80
20081;DHT22;10200;49.232;9.222;2022-08-01T10:03:21;34.60;40.50
20081;DHT22;10200;49.232;9.222;2022-08-01T10:05:47;34.90;41.10
20081;DHT22;10200;49.232;9.222;2022-08-01T10:08:13;35.20;40.40
20081;DHT22;10200;49.232;9.222;2022-08-01T10:10:39;35.00;40.90
20081;DHT22;10200;49.232;9.222;2022-08-01T10:13:06;34.60;39.90
20081;DHT22;10200;49.232;9.222;2022-08-01T10:15:33;34.10;40.50
20081;DHT22;10200;49.232;9.222;2022-08-01T10:18:01;34.20;40.80
20081;DHT22;10200;49.232;9.222;2022-08-01T10:20:29;34.00;41.10
20081;DHT22;10200;49.232;9.222;2022-08-01T10:22:57;33.60;40.80
20081;DHT22;10200;49.232;9.222;2022-08-01T10:25:24;33.20;40.80
20081;DHT22;10200;49.232;9.222;2022-08-01T10:27:53;33.10;42.60
20081;DHT22;10200;49.232;9.222;2022-08-01T10:30:22;33.10;42.90
20081;DHT22;10200;49.232;9.222;2022-08-01T10:32:52;33.50;43.00
20081;DHT22;10200;49.232;9.222;2022-08-01T10:35:18;34.00;41.80
20081;DHT22;10200;49.232;9.222;2022-08-01T10:37:46;33.70;40.90
20081;DHT22;10200;49.232;9.222;2022-08-01T10:40:15;33.50;41.40
20081;DHT22;10200;49.232;9.222;2022-08-01T10:42:43;33.70;41.90
20081;DHT22;10200;49.232;9.222;2022-08-01T10:45:13;33.50;40.90
20081;DHT22;10200;49.232;9.222;2022-08-01T10:50:44;32.90;42.10
20081;DHT22;10200;49.232;9.222;2022-08-01T10:53:14;32.90;42.50
20081;DHT22;10200;49.232;9.222;2022-08-01T10:55:49;32.90;42.40
20081;DHT22;10200;49.232;9.222;2022-08-01T10:58:24;33.10;42.40
20081;DHT22;10200;49.232;9.222;2022-08-01T11:01:25;32.90;42.80
20081;DHT22;10200;49.232;9.222;2022-08-01T11:09:03;32.10;43.80
20081;DHT22;10200;49.232;9.222;2022-08-01T11:11:29;32.00;43.80
20081;DHT22;10200;49.232;9.222;2022-08-01T11:16:31;31.90;44.10
20081;DHT22;10200;49.232;9.222;2022-08-01T11:18:57;31.90;44.00
20081;DHT22;10200;49.232;9.222;2022-08-01T11:27:23;31.80;44.60
20081;DHT22;10200;49.232;9.222;2022-08-01T11:32:33;31.70;44.20
20081;DHT22;10200;49.232;9.222;2022-08-01T11:34:59;31.80;44.60
20081;DHT22;10200;49.232;9.222;2022-08-01T11:37:26;31.90;44.50
20081;DHT22;10200;49.232;9.222;2022-08-01T11:42:39;32.00;44.10
20081;DHT22;10200;49.232;9.222;2022-08-01T11:45:06;32.00;44.20
20081;DHT22;10200;49.232;9.222;2022-08-01T11:47:46;32.10;44.20
20081;DHT22;10200;49.232;9.222;2022-08-01T11:53:04;32.10;44.00
20081;DHT22;10200;49.232;9.222;2022-08-01T11:55:30;32.00;43.80
20081;DHT22;10200;49.232;9.222;2022-08-01T11:58:05;31.90;43.80
20081;DHT22;10200;49.232;9.222;2022-08-01T12:00:32;31.70;44.50
20081;DHT22;10200;49.232;9.222;2022-08-01T12:05:25;31.50;44.90
20081;DHT22;10200;49.232;9.222;2022-08-01T12:07:51;31.30;45.00
20081;DHT22;10200;49.232;9.222;2022-08-01T12:10:19;31.30;45.60
20081;DHT22;10200;49.232;9.222;2022-08-01T12:13:14;31.30;45.80
20081;DHT22;10200;49.232;9.222;2022-08-01T12:15:40;31.50;45.70
20081;DHT22;10200;49.232;9.222;2022-08-01T12:18:07;31.70;44.90
20081;DHT22;10200;49.232;9.222;2022-08-01T12:20:36;31.80;44.50
20081;DHT22;10200;49.232;9.222;2022-08-01T12:23:10;32.00;44.30
20081;DHT22;10200;49.232;9.222;2022-08-01T12:25:37;32.00;44.90
20081;DHT22;10200;49.232;9.222;2022-08-01T12:28:07;32.20;44.20
20081;DHT22;10200;49.232;9.222;2022-08-01T12:30:34;32.30;44.10
20081;DHT22;10200;49.232;9.222;2022-08-01T12:33:01;32.40;43.90
20081;DHT22;10200;49.232;9.222;2022-08-01T12:35:28;32.70;43.80
20081;DHT22;10200;49.232;9.222;2022-08-01T12:38:00;32.90;42.90
20081;DHT22;10200;49.232;9.222;2022-08-01T12:40:29;33.10;42.50
20081;DHT22;10200;49.232;9.222;2022-08-01T12:43:00;33.30;42.20
20081;DHT22;10200;49.232;9.222;2022-08-01T12:45:29;33.20;41.80
20081;DHT22;10200;49.232;9.222;2022-08-01T12:47:56;32.90;41.80
20081;DHT22;10200;49.232;9.222;2022-08-01T12:50:30;32.60;42.10
20081;DHT22;10200;49.232;9.222;2022-08-01T12:52:57;32.30;42.00
20081;DHT22;10200;49.232;9.222;2022-08-01T12:55:24;32.10;42.30
20081;DHT22;10200;49.232;9.222;2022-08-01T12:58:11;32.00;42.70
20081;DHT22;10200;49.232;9.222;2022-08-01T13:00:38;31.90;42.90
20081;DHT22;10200;49.232;9.222;2022-08-01T13:03:15;31.90;43.70
20081;DHT22;10200;49.232;9.222;2022-08-01T13:05:52;32.00;43.70
20081;DHT22;10200;49.232;9.222;2022-08-01T13:08:24;31.90;43.20
20081;DHT22;10200;49.232;9.222;2022-08-01T13:11:03;31.90;43.40
20081;DHT22;10200;49.232;9.222;2022-08-01T13:13:51;32.00;43.50
20081;DHT22;10200;49.232;9.222;2022-08-01T13:16:22;32.20;43.30
20081;DHT22;10200;49.232;9.222;2022-08-01T13:18:56;32.40;43.20
20081;DHT22;10200;49.232;9.222;2022-08-01T13:21:22;32.80;42.80
20081;DHT22;10200;49.232;9.222;2022-08-01T13:29:05;32.90;42.20
20081;DHT22;10200;49.232;9.222;2022-08-01T13:31:35;32.80;41.70
20081;DHT22;10200;49.232;9.222;2022-08-01T13:34:01;33.00;41.80
20081;DHT22;10200;49.232;9.222;2022-08-01T13:36:27;33.10;42.00
20081;DHT22;10200;49.232;9.222;2022-08-01T13:38:54;33.00;42.00
20081;DHT22;10200;49.232;9.222;2022-08-01T13:41:39;32.90;42.30
20081;DHT22;10200;49.232;9.222;2022-08-01T13:44:04;32.70;42.40
20081;DHT22;10200;49.232;9.222;2022-08-01T13:46:33;32.70;42.50
20081;DHT22;10200;49.232;9.222;2022-08-01T13:48:59;32.60;42.60
20081;DHT22;10200;49.232;9.222;2022-08-01T13:51:24;32.50;42.30
20081;DHT22;10200;49.232;9.222;2022-08-01T13:53:50;32.50;42.60
20081;DHT22;10200;49.232;9.222;2022-08-01T13:56:16;32.50;42.80
20081;DHT22;10200;49.232;9.222;2022-08-01T13:58:42;32.70;42.70
20081;DHT22;10200;49.232;9.222;2022-08-01T14:01:08;32.80;42.30
20081;DHT22;10200;49.232;9.222;2022-08-01T14:03:34;32.70;41.90
20081;DHT22;10200;49.232;9.222;2022-08-01T14:06:00;32.50;42.20
20081;DHT22;10200;49.232;9.222;2022-08-01T14:08:26;32.60;43.60
20081;DHT22;10200;49.232;9.222;2022-08-01T14:10:51;32.70;42.30
20081;DHT22;10200;49.232;9.222;2022-08-01T14:13:19;32.80;42.20
20081;DHT22;10200;49.232;9.222;2022-08-01T14:15:44;32.90;41.90
20081;DHT22;10200;49.232;9.222;2022-08-01T14:18:10;33.00;41.30
20081;DHT22;10200;49.232;9.222;2022-08-01T14:20:37;33.00;41.40
20081;DHT22;10200;49.232;9.222;2022-08-01T14:23:03;33.10;41.50
20081;DHT22;10200;49.232;9.222;2022-08-01T14:25:29;33.10;40.70
20081;DHT22;10200;49.232;9.222;2022-08-01T14:27:54;33.10;39.80
20081;DHT22;10200;49.232;9.222;2022-08-01T14:30:20;33.10;40.30
20081;DHT22;10200;49.232;9.222;2022-08-01T14:32:46;33.10;40.30
20081;DHT22;10200;49.232;9.222;2022-08-01T14:35:11;33.00;40.50
20081;DHT22;10200;49.232;9.222;2022-08-01T14:37:37;32.80;40.70
20081;DHT22;10200;49.232;9.222;2022-08-01T14:40:03;32.60;40.90
20081;DHT22;10200;49.232;9.222;2022-08-01T14:42:33;32.50;41.30
20081;DHT22;10200;49.232;9.222;2022-08-01T14:44:59;32.40;42.00
20081;DHT22;10200;49.232;9.222;2022-08-01T14:47:24;32.20;42.40
20081;DHT22;10200;49.232;9.222;2022-08-01T14:49:50;32.10;42.40
20081;DHT22;10200;49.232;9.222;2022-08-01T14:52:16;32.10;42.80
20081;DHT22;10200;49.232;9.222;2022-08-01T14:54:42;32.00;42.50
20081;DHT22;10200;49.232;9.222;2022-08-01T14:57:08;32.00;43.00
20081;DHT22;10200;49.232;9.222;2022-08-01T14:59:34;32.00;43.00
20081;DHT22;10200;49.232;9.222;2022-08-01T15:02:00;32.00;42.50
20081;DHT22;10200;49.232;9.222;2022-08-01T15:04:26;32.00;42.00
20081;DHT22;10200;49.232;9.222;2022-08-01T15:06:51;32.00;42.00
20081;DHT22;10200;49.232;9.222;2022-08-01T15:09:17;32.00;41.90
20081;DHT22;10200;49.232;9.222;2022-08-01T15:11:42;32.10;41.90
20081;DHT22;10200;49.232;9.222;2022-08-01T15:14:08;32.10;41.80
20081;DHT22;10200;49.232;9.222;2022-08-01T15:16:52;32.10;41.50
20081;DHT22;10200;49.232;9.222;2022-08-01T15:19:18;32.00;42.00
20081;DHT22;10200;49.232;9.222;2022-08-01T15:21:43;31.90;42.00
20081;DHT22;10200;49.232;9.222;2022-08-01T15:24:09;31.80;42.50
20081;DHT22;10200;49.232;9.222;2022-08-01T15:26:35;31.80;42.50
20081;DHT22;10200;49.232;9.222;2022-08-01T15:29:00;31.70;42.30
20081;DHT22;10200;49.232;9.222;2022-08-01T15:31:26;31.60;41.90
20081;DHT22;10200;49.232;9.222;2022-08-01T15:33:52;31.50;42.00
20081;DHT22;10200;49.232;9.222;2022-08-01T15:36:17;31.40;42.30
20081;DHT22;10200;49.232;9.222;2022-08-01T15:38:43;31.40;42.50
20081;DHT22;10200;49.232;9.222;2022-08-01T15:41:08;31.40;42.90
20081;DHT22;10200;49.232;9.222;2022-08-01T15:43:34;31.40;43.20
20081;DHT22;10200;49.232;9.222;2022-08-01T15:46:00;31.40;43.40
20081;DHT22;10200;49.232;9.222;2022-08-01T15:48:26;31.30;43.30
20081;DHT22;10200;49.232;9.222;2022-08-01T15:50:52;31.30;43.00
20081;DHT22;10200;49.232;9.222;2022-08-01T15:53:18;31.30;43.20
20081;DHT22;10200;49.232;9.222;2022-08-01T15:55:43;31.30;43.30
20081;DHT22;10200;49.232;9.222;2022-08-01T15:58:09;31.30;43.40
20081;DHT22;10200;49.232;9.222;2022-08-01T16:00:35;31.30;43.60
20081;DHT22;10200;49.232;9.222;2022-08-01T16:03:00;31.30;43.60
20081;DHT22;10200;49.232;9.222;2022-08-01T16:05:26;31.30;43.70
20081;DHT22;10200;49.232;9.222;2022-08-01T16:07:52;31.30;43.80
20081;DHT22;10200;49.232;9.222;2022-08-01T16:10:17;31.30;44.40
20081;DHT22;10200;49.232;9.222;2022-08-01T16:12:43;31.20;43.70
20081;DHT22;10200;49.232;9.222;2022-08-01T16:15:09;31.10;43.80
20081;DHT22;10200;49.232;9.222;2022-08-01T16:17:34;31.10;44.40